sensor_id;sensor_type;location;lat;lon;timestamp;pressure;altitude;pressure_sealevel;temperature;humidity
69411;BME280;56604;48.652;9.194;2023-02-21T00:02:31;96755.16;;;6.45;64.00
69411;BME280;56604;48.652;9.194;2023-02-21T00:05:15;96755.38;;;6.43;64.29
69411;BME280;56604;48.652;9.194;2023-02-21T00:07:58;96766.00;;;6.42;63.87
69411;BME280;56604;48.652;9.194;2023-02-21T00:10:42;96757.16;;;6.43;64.20
69411;BME280;56604;48.652;9.194;2023-02-21T00:13:26;96747.13;;;6.40;64.30
69411;BME280;56604;48.652;9.194;2023-02-21T00:16:15;96743.09;;;6.44;64.25
69411;BME280;56604;48.652;9.194;2023-02-21T00:18:59;96743.53;;;6.41;63.85
69411;BME280;56604;48.652;9.194;2023-02-21T00:21:43;96744.69;;;6.45;63.35
69411;BME280;56604;48.652;9.194;2023-02-21T00:24:27;96744.75;;;6.38;63.58
69411;BME280;56604;48.652;9.194;2023-02-21T00:27:11;96743.53;;;6.41;63.44
69411;BME280;56604;48.652;9.194;2023-02-21T00:29:55;96746.56;;;6.38;63.72
69411;BME280;56604;48.652;9.194;2023-02-21T00:32:39;96736.94;;;6.31;63.87
69411;BME280;56604;48.652;9.194;2023-02-21T00:35:23;96736.94;;;6.31;63.83
69411;BME280;56604;48.652;9.194;2023-02-21T00:38:07;96741.94;;;6.33;63.69
69411;BME280;56604;48.652;9.194;2023-02-21T00:40:51;96732.66;;;6.44;63.48
69411;BME280;56604;48.652;9.194;2023-02-21T00:43:35;96725.81;;;6.49;62.67
69411;BME280;56604;48.652;9.194;2023-02-21T00:46:20;96728.22;;;6.44;63.17
69411;BME280;56604;48.652;9.194;2023-02-21T00:49:04;96734.19;;;6.51;62.68
69411;BME280;56604;48.652;9.194;2023-02-21T00:51:49;96727.63;;;6.49;62.39
69411;BME280;56604;48.652;9.194;2023-02-21T00:54:34;96731.03;;;6.49;62.38
69411;BME280;56604;48.652;9.194;2023-02-21T00:57:18;96726.16;;;6.53;61.89
69411;BME280;56604;48.652;9.194;2023-02-21T01:00:05;96724.16;;;6.55;61.56
69411;BME280;56604;48.652;9.194;2023-02-21T01:02:49;96725.16;;;6.54;61.57
69411;BME280;56604;48.652;9.194;2023-02-21T01:05:33;96724.59;;;6.52;61.52
69411;BME280;56604;48.652;9.194;2023-02-21T01:08:17;96727.34;;;6.57;61.41
69411;BME280;56604;48.652;9.194;2023-02-21T01:11:00;96720.94;;;6.53;61.96
69411;BME280;56604;48.652;9.194;2023-02-21T01:13:44;96719.78;;;6.49;61.89
69411;BME280;56604;48.652;9.194;2023-02-21T01:16:30;96711.34;;;6.47;61.70
69411;BME280;56604;48.652;9.194;2023-02-21T01:19:14;96708.94;;;6.45;61.85
69411;BME280;56604;48.652;9.194;2023-02-21T01:21:58;96716.56;;;6.47;61.55
69411;BME280;56604;48.652;9.194;2023-02-21T01:24:42;96726.84;;;6.42;62.17
69411;BME280;56604;48.652;9.194;2023-02-21T01:27:26;96713.78;;;6.42;61.73
69411;BME280;56604;48.652;9.194;2023-02-21T01:30:10;96710.56;;;6.40;61.82
69411;BME280;56604;48.652;9.194;2023-02-21T01:32:54;96715.38;;;6.43;61.51
69411;BME280;56604;48.652;9.194;2023-02-21T01:35:38;96715.38;;;6.43;61.97
69411;BME280;56604;48.652;9.194;2023-02-21T01:38:22;96720.03;;;6.41;61.97
69411;BME280;56604;48.652;9.194;2023-02-21T01:41:06;96707.59;;;6.36;62.20
69411;BME280;56604;48.652;9.194;2023-02-21T01:47:11;96704.78;;;6.38;62.02
69411;BME280;56604;48.652;9.194;2023-02-21T01:49:55;96705.41;;;6.33;62.32
69411;BME280;56604;48.652;9.194;2023-02-21T01:52:39;96697.41;;;6.28;62.53
69411;BME280;56604;48.652;9.194;2023-02-21T01:55:23;96693.38;;;6.25;62.55
69411;BME280;56604;48.652;9.194;2023-02-21T01:58:07;96692.41;;;6.26;62.14
69411;BME280;56604;48.652;9.194;2023-02-21T02:00:51;96695.38;;;6.30;62.47
69411;BME280;56604;48.652;9.194;2023-02-21T02:03:36;96689.13;;;6.38;62.45
69411;BME280;56604;48.652;9.194;2023-02-21T02:06:21;96682.06;;;6.38;61.96
69411;BME280;56604;48.652;9.194;2023-02-21T02:09:23;96689.06;;;6.44;61.61
69411;BME280;56604;48.652;9.194;2023-02-21T02:20:25;96674.88;;;6.34;61.71
69411;BME280;56604;48.652;9.194;2023-02-21T02:33:37;96672.00;;;6.42;61.68
69411;BME280;56604;48.652;9.194;2023-02-21T02:42:27;96664.84;;;6.30;61.84
69411;BME280;56604;48.652;9.194;2023-02-21T02:44:59;96670.84;;;6.38;61.55
69411;BME280;56604;48.652;9.194;2023-02-21T02:47:31;96656.00;;;6.31;61.46
69411;BME280;56604;48.652;9.194;2023-02-21T02:49:59;96659.16;;;6.40;61.37
69411;BME280;56604;48.652;9.194;2023-02-21T02:52:25;96644.13;;;6.36;61.05
69411;BME280;56604;48.652;9.194;2023-02-21T02:55:04;96648.34;;;6.37;61.20
69411;BME280;56604;48.652;9.194;2023-02-21T02:57:44;96655.16;;;6.38;61.24
69411;BME280;56604;48.652;9.194;2023-02-21T03:00:13;96648.00;;;6.26;61.50
69411;BME280;56604;48.652;9.194;2023-02-21T03:03:01;96648.75;;;6.34;61.35
69411;BME280;56604;48.652;9.194;2023-02-21T03:11:10;96651.44;;;6.20;61.49
69411;BME280;56604;48.652;9.194;2023-02-21T03:18:53;96656.34;;;6.10;61.85
69411;BME280;56604;48.652;9.194;2023-02-21T03:21:33;96656.75;;;6.07;61.97
69411;BME280;56604;48.652;9.194;2023-02-21T03:24:03;96657.75;;;6.06;61.58
69411;BME280;56604;48.652;9.194;2023-02-21T03:26:31;96647.31;;;6.06;61.69
69411;BME280;56604;48.652;9.194;2023-02-21T03:28:58;96650.09;;;6.11;61.77
69411;BME280;56604;48.652;9.194;2023-02-21T03:31:25;96657.44;;;5.96;61.80
69411;BME280;56604;48.652;9.194;2023-02-21T03:33:53;96656.41;;;5.90;62.30
69411;BME280;56604;48.652;9.194;2023-02-21T03:36:19;96647.78;;;5.96;61.90
69411;BME280;56604;48.652;9.194;2023-02-21T03:38:45;96647.81;;;5.90;62.24
69411;BME280;56604;48.652;9.194;2023-02-21T03:41:11;96651.41;;;5.89;62.36
69411;BME280;56604;48.652;9.194;2023-02-21T03:43:37;96644.78;;;5.93;62.06
69411;BME280;56604;48.652;9.194;2023-02-21T03:46:02;96648.03;;;5.81;62.45
69411;BME280;56604;48.652;9.194;2023-02-21T03:48:27;96637.41;;;5.76;61.96
69411;BME280;56604;48.652;9.194;2023-02-21T03:50:53;96644.69;;;5.68;62.60
69411;BME280;56604;48.652;9.194;2023-02-21T03:53:18;96643.47;;;5.70;62.38
69411;BME280;56604;48.652;9.194;2023-02-21T03:55:43;96648.69;;;5.70;62.30
69411;BME280;56604;48.652;9.194;2023-02-21T03:58:08;96644.72;;;5.61;63.08
69411;BME280;56604;48.652;9.194;2023-02-21T04:00:34;96647.91;;;5.70;63.31
69411;BME280;56604;48.652;9.194;2023-02-21T04:02:59;96650.50;;;5.63;63.12
69411;BME280;56604;48.652;9.194;2023-02-21T04:05:24;96642.69;;;5.63;63.35
69411;BME280;56604;48.652;9.194;2023-02-21T04:07:50;96646.13;;;5.63;63.35
69411;BME280;56604;48.652;9.194;2023-02-21T04:10:15;96642.69;;;5.63;63.43
69411;BME280;56604;48.652;9.194;2023-02-21T04:12:40;96643.66;;;5.69;62.81
69411;BME280;56604;48.652;9.194;2023-02-21T04:15:06;96638.25;;;5.70;63.21
69411;BME280;56604;48.652;9.194;2023-02-21T04:17:31;96648.69;;;5.70;62.80
69411;BME280;56604;48.652;9.194;2023-02-21T04:19:57;96641.06;;;5.75;63.00
69411;BME280;56604;48.652;9.194;2023-02-21T04:22:22;96649.84;;;5.81;62.33
69411;BME280;56604;48.652;9.194;2023-02-21T04:24:47;96640.63;;;5.78;63.03
69411;BME280;56604;48.652;9.194;2023-02-21T04:27:14;96643.44;;;5.77;63.03
69411;BME280;56604;48.652;9.194;2023-02-21T04:29:39;96633.19;;;5.82;63.01
69411;BME280;56604;48.652;9.194;2023-02-21T04:32:04;96634.56;;;5.84;62.41
69411;BME280;56604;48.652;9.194;2023-02-21T04:34:30;96637.38;;;5.90;62.50
69411;BME280;56604;48.652;9.194;2023-02-21T04:36:55;96645.38;;;5.95;62.61
69411;BME280;56604;48.652;9.194;2023-02-21T04:39:20;96634.16;;;5.88;62.75
69411;BME280;56604;48.652;9.194;2023-02-21T04:41:45;96645.81;;;5.85;63.39
69411;BME280;56604;48.652;9.194;2023-02-21T04:44:11;96643.00;;;5.86;63.44
69411;BME280;56604;48.652;9.194;2023-02-21T04:46:36;96647.38;;;5.93;63.29
69411;BME280;56604;48.652;9.194;2023-02-21T04:49:02;96643.78;;;5.94;63.06
69411;BME280;56604;48.652;9.194;2023-02-21T04:51:27;96636.34;;;5.91;63.24
69411;BME280;56604;48.652;9.194;2023-02-21T04:53:53;96633.00;;;5.83;63.89
69411;BME280;56604;48.652;9.194;2023-02-21T04:56:21;96635.31;;;5.92;63.63
69411;BME280;56604;48.652;9.194;2023-02-21T04:58:48;96636.16;;;5.85;63.78
69411;BME280;56604;48.652;9.194;2023-02-21T05:01:14;96634.34;;;5.86;63.81
69411;BME280;56604;48.652;9.194;2023-02-21T05:03:40;96630.53;;;5.89;63.77
69411;BME280;56604;48.652;9.194;2023-02-21T05:06:05;96637.78;;;5.86;64.17
69411;BME280;56604;48.652;9.194;2023-02-21T05:08:31;96626.75;;;5.84;64.20
69411;BME280;56604;48.652;9.194;2023-02-21T05:10:56;96631.53;;;5.88;63.97
69411;BME280;56604;48.652;9.194;2023-02-21T05:13:21;96627.75;;;5.83;63.83
69411;BME280;56604;48.652;9.194;2023-02-21T05:15:47;96630.75;;;5.80;64.69
69411;BME280;56604;48.652;9.194;2023-02-21T05:18:13;96632.81;;;5.78;64.32
69411;BME280;56604;48.652;9.194;2023-02-21T05:20:39;96633.47;;;5.67;64.61
69411;BME280;56604;48.652;9.194;2023-02-21T05:23:04;96625.50;;;5.55;65.10
69411;BME280;56604;48.652;9.194;2023-02-21T05:25:29;96628.31;;;5.47;65.02
69411;BME280;56604;48.652;9.194;2023-02-21T05:27:54;96632.34;;;5.50;64.92
69411;BME280;56604;48.652;9.194;2023-02-21T05:30:21;96634.38;;;5.34;65.80
69411;BME280;56604;48.652;9.194;2023-02-21T05:32:48;96628.56;;;5.39;65.47
69411;BME280;56604;48.652;9.194;2023-02-21T05:35:15;96632.78;;;5.33;65.96
69411;BME280;56604;48.652;9.194;2023-02-21T05:37:41;96635.63;;;5.25;65.59
69411;BME280;56604;48.652;9.194;2023-02-21T05:40:09;96632.03;;;5.19;65.74
69411;BME280;56604;48.652;9.194;2023-02-21T05:42:36;96638.81;;;5.27;66.46
69411;BME280;56604;48.652;9.194;2023-02-21T05:45:01;96635.41;;;5.20;66.47
69411;BME280;56604;48.652;9.194;2023-02-21T05:47:26;96632.44;;;5.16;66.79
69411;BME280;56604;48.652;9.194;2023-02-21T05:49:51;96633.22;;;5.17;67.15
69411;BME280;56604;48.652;9.194;2023-02-21T05:52:17;96627.59;;;5.27;67.64
69411;BME280;56604;48.652;9.194;2023-02-21T05:54:43;96631.34;;;5.37;66.94
69411;BME280;56604;48.652;9.194;2023-02-21T05:57:09;96632.34;;;5.43;66.95
69411;BME280;56604;48.652;9.194;2023-02-21T05:59:36;96631.91;;;5.46;67.45
69411;BME280;56604;48.652;9.194;2023-02-21T06:02:01;96629.34;;;5.39;67.61
69411;BME280;56604;48.652;9.194;2023-02-21T06:04:26;96630.94;;;5.47;67.84
69411;BME280;56604;48.652;9.194;2023-02-21T06:06:52;96623.50;;;5.51;67.40
69411;BME280;56604;48.652;9.194;2023-02-21T06:09:18;96633.69;;;5.59;67.39
69411;BME280;56604;48.652;9.194;2023-02-21T06:11:44;96631.91;;;5.53;68.09
69411;BME280;56604;48.652;9.194;2023-02-21T06:14:15;96638.31;;;5.57;68.10
69411;BME280;56604;48.652;9.194;2023-02-21T06:16:41;96638.94;;;5.52;67.67
69411;BME280;56604;48.652;9.194;2023-02-21T06:19:08;96635.72;;;5.50;67.77
69411;BME280;56604;48.652;9.194;2023-02-21T06:21:35;96634.72;;;5.58;69.49
69411;BME280;56604;48.652;9.194;2023-02-21T06:24:02;96633.63;;;5.72;69.00
69411;BME280;56604;48.652;9.194;2023-02-21T06:26:27;96625.09;;;6.28;73.45
69411;BME280;56604;48.652;9.194;2023-02-21T06:28:53;96636.88;;;6.06;67.56
69411;BME280;56604;48.652;9.194;2023-02-21T06:31:19;96631.84;;;6.11;67.72
69411;BME280;56604;48.652;9.194;2023-02-21T06:33:46;96634.06;;;6.07;66.86
69411;BME280;56604;48.652;9.194;2023-02-21T06:36:15;96631.84;;;6.11;66.42
69411;BME280;56604;48.652;9.194;2023-02-21T06:38:44;96626.03;;;6.09;66.15
69411;BME280;56604;48.652;9.194;2023-02-21T06:41:10;96625.09;;;6.28;65.79
69411;BME280;56604;48.652;9.194;2023-02-21T06:43:35;96613.53;;;6.43;64.84
69411;BME280;56604;48.652;9.194;2023-02-21T06:46:02;96611.19;;;6.60;64.90
69411;BME280;56604;48.652;9.194;2023-02-21T06:48:28;96597.03;;;6.92;64.24
69411;BME280;56604;48.652;9.194;2023-02-21T06:50:54;96600.31;;;7.06;63.43
69411;BME280;56604;48.652;9.194;2023-02-21T06:53:19;96609.59;;;7.39;61.61
69411;BME280;56604;48.652;9.194;2023-02-21T06:55:44;96610.38;;;7.39;62.04
69411;BME280;56604;48.652;9.194;2023-02-21T06:58:09;96608.59;;;7.40;61.89
69411;BME280;56604;48.652;9.194;2023-02-21T07:00:35;96620.50;;;7.36;61.76
69411;BME280;56604;48.652;9.194;2023-02-21T07:03:00;96616.06;;;7.36;61.95
69411;BME280;56604;48.652;9.194;2023-02-21T07:05:26;96615.56;;;7.46;61.46
69411;BME280;56604;48.652;9.194;2023-02-21T07:07:51;96609.94;;;7.42;61.39
69411;BME280;56604;48.652;9.194;2023-02-21T07:10:16;96612.91;;;7.64;61.77
69411;BME280;56604;48.652;9.194;2023-02-21T07:12:42;96619.97;;;7.94;60.30
69411;BME280;56604;48.652;9.194;2023-02-21T07:15:07;96620.38;;;8.51;59.11
69411;BME280;56604;48.652;9.194;2023-02-21T07:17:33;96621.41;;;8.97;58.29
69411;BME280;56604;48.652;9.194;2023-02-21T07:19:58;96626.13;;;9.48;56.14
69411;BME280;56604;48.652;9.194;2023-02-21T07:22:23;96622.81;;;10.09;54.80
69411;BME280;56604;48.652;9.194;2023-02-21T07:24:53;96621.97;;;9.92;53.16
69411;BME280;56604;48.652;9.194;2023-02-21T07:27:19;96621.41;;;10.47;51.83
69411;BME280;56604;48.652;9.194;2023-02-21T07:29:46;96625.28;;;10.28;53.71
69411;BME280;56604;48.652;9.194;2023-02-21T07:32:12;96618.91;;;10.74;52.87
69411;BME280;56604;48.652;9.194;2023-02-21T07:34:37;96611.75;;;11.47;51.22
69411;BME280;56604;48.652;9.194;2023-02-21T07:37:03;96615.97;;;11.70;50.84
69411;BME280;56604;48.652;9.194;2023-02-21T07:39:28;96609.22;;;11.80;49.65
69411;BME280;56604;48.652;9.194;2023-02-21T07:41:53;96615.53;;;11.79;50.03
69411;BME280;56604;48.652;9.194;2023-02-21T07:44:20;96610.59;;;12.09;49.43
69411;BME280;56604;48.652;9.194;2023-02-21T07:46:45;96614.00;;;12.37;48.36
69411;BME280;56604;48.652;9.194;2023-02-21T07:49:11;96619.72;;;12.56;47.66
69411;BME280;56604;48.652;9.194;2023-02-21T07:51:36;96614.28;;;13.10;46.55
69411;BME280;56604;48.652;9.194;2023-02-21T07:54:02;96621.41;;;13.10;46.25
69411;BME280;56604;48.652;9.194;2023-02-21T07:56:27;96615.50;;;13.40;45.03
69411;BME280;56604;48.652;9.194;2023-02-21T07:58:52;96624.75;;;13.42;44.93
69411;BME280;56604;48.652;9.194;2023-02-21T08:01:22;96629.34;;;13.15;45.04
69411;BME280;56604;48.652;9.194;2023-02-21T08:03:48;96621.41;;;13.10;45.65
69411;BME280;56604;48.652;9.194;2023-02-21T08:06:13;96619.44;;;13.37;45.29
69411;BME280;56604;48.652;9.194;2023-02-21T08:08:39;96623.78;;;13.59;44.88
69411;BME280;56604;48.652;9.194;2023-02-21T08:11:04;96620.16;;;13.85;44.24
69411;BME280;56604;48.652;9.194;2023-02-21T08:13:30;96622.00;;;13.75;45.60
69411;BME280;56604;48.652;9.194;2023-02-21T08:15:55;96615.97;;;14.05;44.45
69411;BME280;56604;48.652;9.194;2023-02-21T08:18:21;96620.28;;;14.42;43.34
69411;BME280;56604;48.652;9.194;2023-02-21T08:20:52;96626.06;;;14.28;42.69
69411;BME280;56604;48.652;9.194;2023-02-21T08:23:18;96619.75;;;14.65;41.87
69411;BME280;56604;48.652;9.194;2023-02-21T08:25:44;96618.69;;;14.97;41.62
69411;BME280;56604;48.652;9.194;2023-02-21T08:28:10;96620.56;;;14.66;41.61
69411;BME280;56604;48.652;9.194;2023-02-21T08:30:35;96627.97;;;14.74;42.17
69411;BME280;56604;48.652;9.194;2023-02-21T08:33:01;96630.91;;;14.72;41.56
69411;BME280;56604;48.652;9.194;2023-02-21T08:35:26;96637.25;;;14.66;41.61
69411;BME280;56604;48.652;9.194;2023-02-21T08:37:51;96628.41;;;15.32;40.32
69411;BME280;56604;48.652;9.194;2023-02-21T08:40:21;96635.59;;;15.26;40.73
69411;BME280;56604;48.652;9.194;2023-02-21T08:42:49;96631.09;;;15.97;39.33
69411;BME280;56604;48.652;9.194;2023-02-21T08:45:16;96645.03;;;15.68;39.57
69411;BME280;56604;48.652;9.194;2023-02-21T08:47:42;96633.31;;;16.24;38.90
69411;BME280;56604;48.652;9.194;2023-02-21T08:50:07;96637.25;;;16.32;38.86
69411;BME280;56604;48.652;9.194;2023-02-21T08:52:33;96638.81;;;17.06;38.32
69411;BME280;56604;48.652;9.194;2023-02-21T08:54:58;96639.56;;;16.83;38.01
69411;BME280;56604;48.652;9.194;2023-02-21T08:57:23;96632.03;;;16.16;40.17
69411;BME280;56604;48.652;9.194;2023-02-21T08:59:49;96639.69;;;16.62;39.93
69411;BME280;56604;48.652;9.194;2023-02-21T09:02:15;96641.41;;;16.48;38.99
69411;BME280;56604;48.652;9.194;2023-02-21T09:04:42;96641.50;;;16.67;39.59
69411;BME280;56604;48.652;9.194;2023-02-21T09:07:07;96629.22;;;16.42;39.46
69411;BME280;56604;48.652;9.194;2023-02-21T09:09:32;96627.09;;;17.37;38.68
69411;BME280;56604;48.652;9.194;2023-02-21T09:11:58;96634.38;;;17.50;37.09
69411;BME280;56604;48.652;9.194;2023-02-21T09:14:23;96638.44;;;16.10;39.11
69411;BME280;56604;48.652;9.194;2023-02-21T09:16:48;96637.53;;;16.64;38.30
69411;BME280;56604;48.652;9.194;2023-02-21T09:19:14;96622.63;;;18.18;36.30
69411;BME280;56604;48.652;9.194;2023-02-21T09:21:45;96635.34;;;18.59;34.92
69411;BME280;56604;48.652;9.194;2023-02-21T09:24:11;96628.84;;;18.65;34.81
69411;BME280;56604;48.652;9.194;2023-02-21T09:26:36;96625.66;;;17.68;35.94
69411;BME280;56604;48.652;9.194;2023-02-21T09:29:01;96624.22;;;18.00;36.43
69411;BME280;56604;48.652;9.194;2023-02-21T09:31:27;96627.63;;;17.58;36.73
69411;BME280;56604;48.652;9.194;2023-02-21T09:33:52;96628.88;;;17.89;36.07
69411;BME280;56604;48.652;9.194;2023-02-21T09:36:17;96631.31;;;18.61;34.88
69411;BME280;56604;48.652;9.194;2023-02-21T09:38:51;96621.91;;;19.16;34.69
69411;BME280;56604;48.652;9.194;2023-02-21T09:41:18;96621.97;;;18.97;34.25
69411;BME280;56604;48.652;9.194;2023-02-21T09:43:45;96619.13;;;19.35;34.02
69411;BME280;56604;48.652;9.194;2023-02-21T09:46:16;96626.00;;;18.94;34.30
69411;BME280;56604;48.652;9.194;2023-02-21T09:48:43;96620.53;;;19.46;33.98
69411;BME280;56604;48.652;9.194;2023-02-21T09:51:10;96625.72;;;19.09;34.13
69411;BME280;56604;48.652;9.194;2023-02-21T09:53:41;96621.13;;;19.43;33.74
69411;BME280;56604;48.652;9.194;2023-02-21T09:58:43;96622.25;;;18.81;35.31
69411;BME280;56604;48.652;9.194;2023-02-21T10:04:15;96624.03;;;17.48;39.21
69411;BME280;56604;48.652;9.194;2023-02-21T10:06:52;96618.22;;;16.93;41.47
69411;BME280;56604;48.652;9.194;2023-02-21T10:12:33;96617.56;;;16.38;40.39
69411;BME280;56604;48.652;9.194;2023-02-21T10:15:33;96622.81;;;16.48;40.06
69411;BME280;56604;48.652;9.194;2023-02-21T10:20:40;96616.88;;;16.61;41.35
69411;BME280;56604;48.652;9.194;2023-02-21T10:26:02;96619.38;;;16.08;41.34
69411;BME280;56604;48.652;9.194;2023-02-21T10:28:28;96633.47;;;15.28;45.74
69411;BME280;56604;48.652;9.194;2023-02-21T10:30:57;96623.28;;;15.56;45.63
69411;BME280;56604;48.652;9.194;2023-02-21T10:33:24;96616.00;;;16.37;44.81
69411;BME280;56604;48.652;9.194;2023-02-21T10:35:49;96610.28;;;16.19;41.58
69411;BME280;56604;48.652;9.194;2023-02-21T10:38:20;96614.69;;;15.90;42.92
69411;BME280;56604;48.652;9.194;2023-02-21T10:40:54;96615.31;;;15.71;42.49
69411;BME280;56604;48.652;9.194;2023-02-21T10:46:12;96612.16;;;15.69;42.80
69411;BME280;56604;48.652;9.194;2023-02-21T10:48:41;96618.59;;;15.43;44.43
69411;BME280;56604;48.652;9.194;2023-02-21T10:51:12;96614.44;;;14.96;45.17
69411;BME280;56604;48.652;9.194;2023-02-21T10:53:40;96618.72;;;14.81;45.76
69411;BME280;56604;48.652;9.194;2023-02-21T11:01:12;96611.84;;;14.75;45.11
69411;BME280;56604;48.652;9.194;2023-02-21T11:03:44;96603.34;;;14.78;46.22
69411;BME280;56604;48.652;9.194;2023-02-21T11:06:21;96596.16;;;14.99;44.42
69411;BME280;56604;48.652;9.194;2023-02-21T11:08:48;96594.88;;;14.81;44.57
69411;BME280;56604;48.652;9.194;2023-02-21T11:11:13;96592.50;;;14.85;44.45
69411;BME280;56604;48.652;9.194;2023-02-21T11:13:38;96583.09;;;15.39;44.56
69411;BME280;56604;48.652;9.194;2023-02-21T11:16:19;96582.66;;;15.06;45.52
69411;BME280;56604;48.652;9.194;2023-02-21T11:19:02;96581.34;;;14.98;43.95
69411;BME280;56604;48.652;9.194;2023-02-21T11:21:28;96584.78;;;14.94;44.27
69411;BME280;56604;48.652;9.194;2023-02-21T11:23:55;96578.22;;;14.86;45.25
69411;BME280;56604;48.652;9.194;2023-02-21T11:26:23;96580.34;;;14.53;44.80
69411;BME280;56604;48.652;9.194;2023-02-21T11:28:49;96575.06;;;14.64;44.57
69411;BME280;56604;48.652;9.194;2023-02-21T11:31:30;96563.94;;;14.67;43.59
69411;BME280;56604;48.652;9.194;2023-02-21T11:33:59;96558.13;;;14.65;43.60
69411;BME280;56604;48.652;9.194;2023-02-21T11:36:37;96550.91;;;14.96;43.26
69411;BME280;56604;48.652;9.194;2023-02-21T11:39:25;96549.38;;;14.64;46.40
69411;BME280;56604;48.652;9.194;2023-02-21T11:42:00;96549.88;;;14.76;46.32
69411;BME280;56604;48.652;9.194;2023-02-21T11:44:33;96539.69;;;15.29;45.17
69411;BME280;56604;48.652;9.194;2023-02-21T11:52:50;96530.16;;;15.28;41.26
69411;BME280;56604;48.652;9.194;2023-02-21T11:55:19;96528.19;;;15.55;40.90
69411;BME280;56604;48.652;9.194;2023-02-21T11:58:16;96517.50;;;15.70;39.56
69411;BME280;56604;48.652;9.194;2023-02-21T12:00:52;96510.75;;;15.38;40.23
69411;BME280;56604;48.652;9.194;2023-02-21T12:03:46;96517.28;;;14.91;41.65
69411;BME280;56604;48.652;9.194;2023-02-21T12:06:24;96515.50;;;14.71;40.67
69411;BME280;56604;48.652;9.194;2023-02-21T12:12:07;96492.19;;;14.78;43.68
69411;BME280;56604;48.652;9.194;2023-02-21T12:17:15;96488.53;;;14.49;41.77
69411;BME280;56604;48.652;9.194;2023-02-21T12:22:12;96473.72;;;14.53;42.47
69411;BME280;56604;48.652;9.194;2023-02-21T12:24:53;96470.84;;;14.54;42.27
69411;BME280;56604;48.652;9.194;2023-02-21T12:45:11;96449.31;;;14.81;39.88
69411;BME280;56604;48.652;9.194;2023-02-21T12:48:24;96438.25;;;14.64;39.17
69411;BME280;56604;48.652;9.194;2023-02-21T12:50:53;96437.69;;;14.77;40.34
69411;BME280;56604;48.652;9.194;2023-02-21T12:53:28;96423.38;;;14.78;40.46
69411;BME280;56604;48.652;9.194;2023-02-21T12:56:08;96422.81;;;14.87;39.45
69411;BME280;56604;48.652;9.194;2023-02-21T12:58:48;96411.69;;;14.84;39.53
69411;BME280;56604;48.652;9.194;2023-02-21T13:01:22;96405.31;;;14.91;39.51
69411;BME280;56604;48.652;9.194;2023-02-21T13:06:34;96397.88;;;15.03;39.22
69411;BME280;56604;48.652;9.194;2023-02-21T13:11:55;96390.38;;;15.15;39.58
69411;BME280;56604;48.652;9.194;2023-02-21T13:14:30;96387.75;;;15.10;39.79
69411;BME280;56604;48.652;9.194;2023-02-21T13:16:56;96379.78;;;15.15;39.92
69411;BME280;56604;48.652;9.194;2023-02-21T13:19:22;96377.13;;;15.15;40.26
69411;BME280;56604;48.652;9.194;2023-02-21T13:24:31;96367.56;;;15.19;40.42
69411;BME280;56604;48.652;9.194;2023-02-21T13:29:49;96368.09;;;15.21;39.24
69411;BME280;56604;48.652;9.194;2023-02-21T13:32:17;96354.25;;;15.29;39.81
69411;BME280;56604;48.652;9.194;2023-02-21T13:34:54;96347.44;;;15.18;38.39
69411;BME280;56604;48.652;9.194;2023-02-21T13:37:23;96346.44;;;15.14;38.99
69411;BME280;56604;48.652;9.194;2023-02-21T13:39:53;96346.47;;;15.04;39.03
69411;BME280;56604;48.652;9.194;2023-02-21T13:42:25;96343.81;;;15.09;38.99
69411;BME280;56604;48.652;9.194;2023-02-21T13:45:18;96335.84;;;15.14;39.13
69411;BME280;56604;48.652;9.194;2023-02-21T13:48:15;96329.91;;;15.27;39.52
69411;BME280;56604;48.652;9.194;2023-02-21T13:50:47;96327.38;;;15.12;38.75
69411;BME280;56604;48.652;9.194;2023-02-21T13:53:32;96324.63;;;15.22;38.90
69411;BME280;56604;48.652;9.194;2023-02-21T13:56:18;96312.69;;;15.25;40.63
69411;BME280;56604;48.652;9.194;2023-02-21T13:58:48;96323.03;;;15.26;39.54
69411;BME280;56604;48.652;9.194;2023-02-21T14:01:38;96316.16;;;15.25;40.54
69411;BME280;56604;48.652;9.194;2023-02-21T14:07:07;96303.41;;;15.27;38.86
69411;BME280;56604;48.652;9.194;2023-02-21T14:09:35;96302.28;;;15.34;39.79
69411;BME280;56604;48.652;9.194;2023-02-21T14:12:03;96296.22;;;15.33;39.64
69411;BME280;56604;48.652;9.194;2023-02-21T14:14:31;96293.59;;;15.28;39.25
69411;BME280;56604;48.652;9.194;2023-02-21T14:17:04;96297.63;;;15.25;39.34
69411;BME280;56604;48.652;9.194;2023-02-21T14:19:42;96295.81;;;15.16;39.81
69411;BME280;56604;48.652;9.194;2023-02-21T14:22:12;96289.91;;;15.29;40.29
69411;BME280;56604;48.652;9.194;2023-02-21T14:24:41;96289.19;;;15.18;40.35
69411;BME280;56604;48.652;9.194;2023-02-21T14:39:46;96282.31;;;15.17;41.03
69411;BME280;56604;48.652;9.194;2023-02-21T14:42:25;96274.88;;;15.19;41.25
69411;BME280;56604;48.652;9.194;2023-02-21T15:02:55;96257.97;;;15.15;42.03
69411;BME280;56604;48.652;9.194;2023-02-21T15:05:37;96250.56;;;15.12;41.34
69411;BME280;56604;48.652;9.194;2023-02-21T15:08:11;96251.16;;;15.04;41.21
69411;BME280;56604;48.652;9.194;2023-02-21T15:10:40;96248.78;;;15.02;41.39
69411;BME280;56604;48.652;9.194;2023-02-21T15:13:28;96248.53;;;15.04;40.80
69411;BME280;56604;48.652;9.194;2023-02-21T15:15:59;96243.25;;;14.99;41.30
69411;BME280;56604;48.652;9.194;2023-02-21T15:18:32;96245.38;;;14.97;41.26
69411;BME280;56604;48.652;9.194;2023-02-21T15:21:06;96246.97;;;14.98;41.46
69411;BME280;56604;48.652;9.194;2023-02-21T15:23:32;96247.34;;;14.86;41.34
69411;BME280;56604;48.652;9.194;2023-02-21T15:26:00;96243.09;;;14.85;41.45
69411;BME280;56604;48.652;9.194;2023-02-21T15:28:34;96242.31;;;14.84;41.39
69411;BME280;56604;48.652;9.194;2023-02-21T15:31:05;96238.56;;;14.91;40.83
69411;BME280;56604;48.652;9.194;2023-02-21T15:33:34;96240.66;;;14.94;40.63
69411;BME280;56604;48.652;9.194;2023-02-21T15:38:41;96235.09;;;14.95;41.38
69411;BME280;56604;48.652;9.194;2023-02-21T15:41:35;96238.06;;;14.89;41.61
69411;BME280;56604;48.652;9.194;2023-02-21T15:44:21;96232.78;;;14.83;42.30
69411;BME280;56604;48.652;9.194;2023-02-21T15:49:31;96236.56;;;14.77;43.11
69411;BME280;56604;48.652;9.194;2023-02-21T15:52:00;96224.91;;;14.73;42.46